Winkler, Texas
Current Conditions -  °F | °C
As of 6:53 AM on Thursday 18 Dec 2014 (Local Time) from KCRS Reporting Station
Haze Haze  
Wind Chill: 43°   Ceiling: 200
Heat Index: 46°   Visibility: 0.75mi
Dew Point: 44°   Wind: 6mph
Humidity: 93%   Direction: 80°E
Pressure: 30.14"   Gusts: NA
Location:  31.9013°N, 96.2795°W
Report Text: KCRS 181253Z AUTO 08005KT 3/4SM BR VV002 08/07 A3014 RMK AO2 SLP205 T00780067
Loading
Personal Weather Stations






























Interactive Weather Map New forecast layout! Learn more

10-Day Weather Forecast

Advertisements
Track Severe Weather on mobile